createdAt,value
2018-09-02T00:02:32.528Z,70.58
2018-09-02T00:05:37.510Z,71.42
2018-09-02T00:08:42.422Z,71.26
2018-09-02T00:11:47.354Z,71.01
2018-09-02T00:14:52.325Z,70.74
2018-09-02T00:17:57.248Z,71.12
2018-09-02T00:21:02.307Z,71.66
2018-09-02T00:24:07.246Z,71.61
2018-09-02T00:27:12.164Z,71.55
2018-09-02T00:30:17.088Z,71.97
2018-09-02T00:33:22.122Z,72.48
2018-09-02T00:36:26.973Z,72.08
2018-09-02T00:39:31.879Z,71.23
2018-09-02T00:42:36.810Z,71.92
2018-09-02T00:45:41.754Z,71.42
2018-09-02T00:48:46.735Z,72.29
2018-09-02T00:51:51.636Z,71.14
2018-09-02T00:54:56.558Z,71.40
2018-09-02T00:58:03.703Z,71.42
2018-09-02T01:01:08.625Z,71.46
2018-09-02T01:04:13.541Z,72.29
2018-09-02T01:07:18.493Z,72.42
2018-09-02T01:10:23.436Z,71.96
2018-09-02T01:13:28.378Z,72.07
2018-09-02T01:16:33.285Z,71.88
2018-09-02T01:19:38.238Z,72.77
2018-09-02T01:22:43.181Z,71.48
2018-09-02T01:25:48.108Z,72.81
2018-09-02T01:28:53.087Z,73.21
2018-09-02T01:31:58.031Z,72.96
2018-09-02T01:35:02.972Z,72.74
2018-09-02T01:38:07.946Z,72.54
2018-09-02T01:41:12.852Z,72.27
2018-09-02T01:44:17.792Z,72.77
2018-09-02T01:47:22.735Z,72.78
2018-09-02T01:50:27.674Z,73.66
2018-09-02T01:53:32.605Z,73.58
2018-09-02T01:56:37.529Z,72.52
2018-09-02T01:59:42.457Z,73.14
2018-09-02T02:02:48.037Z,72.54
2018-09-02T02:05:53.000Z,72.87
2018-09-02T02:08:57.962Z,73.00
2018-09-02T02:12:02.945Z,73.01
2018-09-02T02:15:08.093Z,73.01
2018-09-02T02:18:13.029Z,72.34
2018-09-02T02:21:17.952Z,73.08
2018-09-02T02:24:22.898Z,73.30
2018-09-02T02:27:28.029Z,73.37
2018-09-02T02:30:32.948Z,72.99
2018-09-02T02:33:37.881Z,73.18
2018-09-02T02:36:42.861Z,73.61
2018-09-02T02:39:47.793Z,72.87
2018-09-02T02:42:52.721Z,73.53
2018-09-02T02:45:57.666Z,72.72
2018-09-02T02:49:06.165Z,73.59
2018-09-02T02:52:11.121Z,74.18
2018-09-02T02:55:16.053Z,74.22
2018-09-02T02:58:21.057Z,73.55
2018-09-02T03:01:25.993Z,74.17
2018-09-02T03:04:30.957Z,73.30
2018-09-02T03:07:35.891Z,74.12
2018-09-02T03:10:40.904Z,73.56
2018-09-02T03:13:45.786Z,73.16
2018-09-02T03:16:50.737Z,73.38
2018-09-02T03:19:55.715Z,74.23
2018-09-02T03:23:00.641Z,74.42
2018-09-02T03:26:05.618Z,74.27
2018-09-02T03:29:10.532Z,73.33
2018-09-02T03:32:15.483Z,74.59
2018-09-02T03:35:20.427Z,74.43
2018-09-02T03:38:25.404Z,74.74
2018-09-02T03:41:30.395Z,74.92
2018-09-02T03:44:35.353Z,74.90
2018-09-02T03:47:40.285Z,74.90
2018-09-02T03:50:45.222Z,73.68
2018-09-02T03:53:50.181Z,74.95
2018-09-02T03:56:55.353Z,74.08
2018-09-02T04:00:00.276Z,74.65
2018-09-02T04:03:05.305Z,74.34
2018-09-02T04:06:10.229Z,74.55
2018-09-02T04:09:15.149Z,74.07
2018-09-02T04:12:20.100Z,74.24
2018-09-02T04:15:25.024Z,74.76
2018-09-02T04:18:29.974Z,74.36
2018-09-02T04:21:34.910Z,75.18
2018-09-02T04:24:39.830Z,74.56
2018-09-02T04:27:44.761Z,75.33
2018-09-02T04:30:49.791Z,74.90
2018-09-02T04:33:54.962Z,74.76
2018-09-02T04:36:59.881Z,74.66
2018-09-02T04:40:05.025Z,74.79
2018-09-02T04:43:09.975Z,75.09
2018-09-02T04:46:14.901Z,74.73
2018-09-02T04:49:19.827Z,75.23
2018-09-02T04:52:24.737Z,76.00
2018-09-02T04:55:29.648Z,75.94
2018-09-02T04:58:34.550Z,75.96
2018-09-02T05:01:39.478Z,75.04
2018-09-02T05:04:44.432Z,75.76
2018-09-02T05:07:49.349Z,76.08
2018-09-02T05:10:54.249Z,75.44
2018-09-02T05:13:59.203Z,76.02
2018-09-02T05:17:04.179Z,75.38
2018-09-02T05:20:09.157Z,75.81
2018-09-02T05:23:14.101Z,75.23
2018-09-02T05:26:19.033Z,75.33
2018-09-02T05:29:23.945Z,75.70
2018-09-02T05:32:28.945Z,74.77
2018-09-02T05:35:33.852Z,75.23
2018-09-02T05:38:38.761Z,74.84
2018-09-02T05:41:43.682Z,74.92
2018-09-02T05:44:48.576Z,75.64
2018-09-02T05:47:53.488Z,75.45
2018-09-02T05:50:58.414Z,75.46
2018-09-02T05:54:03.385Z,75.26
2018-09-02T05:57:08.353Z,75.39
2018-09-02T06:00:13.293Z,75.69
2018-09-02T06:03:18.231Z,75.90
2018-09-02T06:06:23.221Z,75.48
2018-09-02T06:09:28.125Z,74.96
2018-09-02T06:12:33.193Z,74.80
2018-09-02T06:15:38.108Z,74.15
2018-09-02T06:18:43.021Z,73.90
2018-09-02T06:21:47.965Z,73.02
2018-09-02T06:24:52.883Z,72.72
2018-09-02T06:27:57.824Z,72.92
2018-09-02T06:31:02.736Z,73.39
2018-09-02T06:34:07.649Z,73.23
2018-09-02T06:37:12.561Z,72.86
2018-09-02T06:40:17.466Z,73.08
2018-09-02T06:43:22.381Z,72.69
2018-09-02T06:46:27.353Z,71.77
2018-09-02T06:49:32.289Z,72.09
2018-09-02T06:52:37.214Z,71.90
2018-09-02T06:55:42.504Z,71.74
2018-09-02T06:58:47.492Z,72.18
2018-09-02T07:01:52.375Z,71.59
2018-09-02T07:04:57.277Z,70.80
2018-09-02T07:08:02.215Z,71.50
2018-09-02T07:11:07.130Z,71.39
2018-09-02T07:14:12.059Z,71.03
2018-09-02T07:17:17.009Z,71.83
2018-09-02T07:20:21.978Z,71.43
2018-09-02T07:23:26.922Z,71.83
2018-09-02T07:26:31.852Z,72.83
2018-09-02T07:29:36.785Z,72.15
2018-09-02T07:32:42.105Z,72.00
2018-09-02T07:35:47.271Z,72.38
2018-09-02T07:38:52.241Z,73.10
2018-09-02T07:41:57.200Z,73.55
2018-09-02T07:45:02.205Z,72.98
2018-09-02T07:48:07.146Z,73.81
2018-09-02T07:51:12.099Z,72.64
2018-09-02T07:54:17.038Z,73.62
2018-09-02T07:57:21.993Z,73.02
2018-09-02T08:00:26.953Z,72.42
2018-09-02T08:03:31.890Z,72.72
2018-09-02T08:06:36.800Z,72.48
2018-09-02T08:09:41.760Z,72.45
2018-09-02T08:12:46.840Z,71.44
2018-09-02T08:15:51.820Z,72.03
2018-09-02T08:18:56.757Z,71.86
2018-09-02T08:22:01.687Z,70.88
2018-09-02T08:25:06.638Z,70.80
2018-09-02T08:28:11.594Z,70.33
2018-09-02T08:31:17.467Z,69.98
2018-09-02T08:34:22.386Z,70.44
2018-09-02T08:37:27.297Z,71.04
2018-09-02T08:40:32.236Z,70.73
2018-09-02T08:43:37.151Z,69.42
2018-09-02T08:46:42.069Z,68.89
2018-09-02T08:49:46.986Z,69.10
2018-09-02T08:52:52.049Z,69.50
2018-09-02T08:55:56.977Z,69.03
2018-09-02T08:59:01.881Z,68.48
2018-09-02T09:02:06.813Z,67.42
2018-09-02T09:05:11.725Z,66.92
2018-09-02T09:08:16.885Z,66.91
2018-09-02T09:11:21.656Z,66.74
2018-09-02T09:14:26.594Z,66.81
2018-09-02T09:17:31.529Z,67.56
2018-09-02T09:20:36.450Z,66.26
2018-09-02T09:23:41.421Z,66.59
2018-09-02T09:26:46.338Z,65.17
2018-09-02T09:29:51.281Z,63.20
2018-09-02T09:32:56.198Z,62.13
2018-09-02T09:36:01.105Z,61.96
2018-09-02T09:39:07.528Z,60.24
2018-09-02T09:42:12.422Z,57.87
2018-09-02T09:45:17.481Z,55.36
2018-09-02T09:48:22.408Z,53.14
2018-09-02T09:51:27.322Z,53.24
2018-09-02T09:54:32.249Z,52.80
2018-09-02T09:57:37.207Z,53.02
2018-09-02T10:00:48.817Z,53.25
2018-09-02T10:03:53.736Z,53.33
2018-09-02T10:06:58.725Z,53.25
2018-09-02T10:10:03.731Z,54.46
2018-09-02T10:13:08.672Z,54.69
2018-09-02T10:16:13.611Z,54.87
2018-09-02T10:19:18.525Z,55.14
2018-09-02T10:22:23.478Z,55.37
2018-09-02T10:25:28.408Z,54.75
2018-09-02T10:28:33.445Z,54.06
2018-09-02T10:31:38.377Z,54.98
2018-09-02T10:34:43.305Z,54.59
2018-09-02T10:37:48.556Z,54.43
2018-09-02T10:40:53.583Z,54.48
2018-09-02T10:43:58.452Z,55.69
2018-09-02T10:47:03.496Z,55.28
2018-09-02T10:50:08.901Z,56.87
2018-09-02T10:53:13.844Z,57.22
2018-09-02T10:56:18.777Z,57.35
2018-09-02T10:59:23.737Z,57.99
2018-09-02T11:02:28.673Z,57.91
2018-09-02T11:05:33.589Z,57.66
2018-09-02T11:08:38.546Z,58.07
2018-09-02T11:11:43.444Z,57.95
2018-09-02T11:14:48.365Z,58.33
2018-09-02T11:17:53.356Z,56.47
2018-09-02T11:20:58.328Z,57.05
2018-09-02T11:24:03.508Z,57.02
2018-09-02T11:27:08.742Z,55.64
2018-09-02T11:30:13.665Z,57.05
2018-09-02T11:33:18.619Z,56.62
2018-09-02T11:36:23.558Z,57.93
2018-09-02T11:39:28.505Z,57.07
2018-09-02T11:42:33.422Z,57.06
2018-09-02T11:45:38.445Z,56.70
2018-09-02T11:48:43.369Z,57.07
2018-09-02T11:51:48.298Z,57.27
2018-09-02T11:54:53.221Z,58.18
2018-09-02T11:57:58.173Z,57.56
2018-09-02T12:01:03.189Z,58.56
2018-09-02T12:04:08.181Z,58.07
2018-09-02T12:07:13.066Z,57.06
2018-09-02T12:10:18.133Z,57.75
2018-09-02T12:13:23.050Z,56.81
2018-09-02T12:16:27.996Z,57.32
2018-09-02T12:19:32.952Z,56.13
2018-09-02T12:22:37.885Z,56.92
2018-09-02T12:25:42.806Z,57.99
2018-09-02T12:28:47.729Z,57.08
2018-09-02T12:31:52.660Z,56.63
2018-09-02T12:34:57.582Z,56.47
2018-09-02T12:38:02.504Z,56.00
2018-09-02T12:41:07.425Z,56.61
2018-09-02T12:44:12.335Z,55.80
2018-09-02T12:47:17.333Z,55.06
2018-09-02T12:50:22.275Z,54.02
2018-09-02T12:53:27.170Z,53.73
2018-09-02T12:56:32.117Z,54.58
2018-09-02T12:59:37.018Z,53.40
2018-09-02T13:02:41.941Z,53.20
2018-09-02T13:05:46.852Z,52.82
2018-09-02T13:08:51.769Z,53.21
2018-09-02T13:11:56.696Z,53.04
2018-09-02T13:15:01.702Z,52.64
2018-09-02T13:18:06.699Z,52.29
2018-09-02T13:21:11.628Z,52.00
2018-09-02T13:24:16.574Z,52.52
2018-09-02T13:27:21.576Z,53.48
2018-09-02T13:30:26.497Z,53.12
2018-09-02T13:33:31.413Z,53.38
2018-09-02T13:36:36.400Z,53.88
2018-09-02T13:39:41.550Z,54.68
2018-09-02T13:42:46.492Z,54.79
2018-09-02T13:45:51.417Z,53.89
2018-09-02T13:48:56.325Z,55.09
2018-09-02T13:52:01.318Z,54.28
2018-09-02T13:55:06.286Z,54.20
2018-09-02T13:58:11.207Z,54.47
2018-09-02T14:01:16.323Z,54.30
2018-09-02T14:04:21.218Z,54.37
2018-09-02T14:07:26.160Z,54.57
2018-09-02T14:10:31.097Z,55.11
2018-09-02T14:13:36.013Z,55.68
2018-09-02T14:16:40.953Z,56.67
2018-09-02T14:19:45.974Z,56.35
2018-09-02T14:22:50.842Z,55.47
2018-09-02T14:25:55.773Z,56.14
2018-09-02T14:29:00.685Z,56.16
2018-09-02T14:32:05.662Z,54.69
2018-09-02T14:35:10.589Z,53.85
2018-09-02T14:38:15.539Z,54.42
2018-09-02T14:41:20.665Z,54.90
2018-09-02T14:44:25.589Z,55.44
2018-09-02T14:47:30.557Z,54.45
2018-09-02T14:50:35.497Z,54.43
2018-09-02T14:53:40.706Z,54.30
2018-09-02T14:56:45.743Z,55.27
2018-09-02T14:59:50.753Z,54.29
2018-09-02T15:02:55.692Z,54.80
2018-09-02T15:06:01.220Z,54.46
2018-09-02T15:09:07.280Z,55.57
2018-09-02T15:12:12.213Z,55.24
2018-09-02T15:15:17.421Z,55.74
2018-09-02T15:18:22.384Z,56.71
2018-09-02T15:21:27.407Z,56.51
2018-09-02T15:24:32.412Z,57.41
2018-09-02T15:27:37.681Z,57.54
2018-09-02T15:30:42.889Z,57.17
2018-09-02T15:33:48.532Z,56.73
2018-09-02T15:36:53.543Z,56.55
2018-09-02T15:39:58.492Z,56.74
2018-09-02T15:43:03.598Z,56.23
2018-09-02T15:46:08.743Z,57.03
2018-09-02T15:49:14.040Z,57.54
2018-09-02T15:52:19.376Z,56.48
2018-09-02T15:55:24.688Z,57.51
2018-09-02T15:58:29.685Z,56.22
2018-09-02T16:01:34.684Z,56.62
2018-09-02T16:04:39.874Z,55.55
2018-09-02T16:07:45.183Z,55.85
2018-09-02T16:10:50.594Z,56.62
2018-09-02T16:13:55.984Z,56.65
2018-09-02T16:17:01.435Z,55.88
2018-09-02T16:20:07.041Z,56.05
2018-09-02T16:23:12.015Z,57.58
2018-09-02T16:26:17.094Z,56.63
2018-09-02T16:29:22.180Z,55.83
2018-09-02T16:32:28.722Z,56.43
2018-09-02T16:35:33.696Z,56.11
2018-09-02T16:38:38.786Z,57.28
2018-09-02T16:41:44.314Z,57.63
2018-09-02T16:44:49.851Z,58.34
2018-09-02T16:47:55.233Z,59.02
2018-09-02T16:51:00.265Z,57.69
2018-09-02T16:54:05.294Z,58.36
2018-09-02T16:57:10.299Z,57.47
2018-09-02T17:00:15.321Z,58.09
2018-09-02T17:03:22.838Z,57.73
2018-09-02T17:06:27.785Z,56.97
2018-09-02T17:09:32.812Z,57.32
2018-09-02T17:12:37.910Z,57.73
2018-09-02T17:15:42.769Z,58.58
2018-09-02T17:18:50.442Z,58.46
2018-09-02T17:21:55.463Z,58.18
2018-09-02T17:25:00.470Z,59.60
2018-09-02T17:28:05.565Z,58.64
2018-09-02T17:31:10.532Z,59.58
2018-09-02T17:34:15.530Z,60.26
2018-09-02T17:37:20.520Z,60.81
2018-09-02T17:40:25.527Z,60.50
2018-09-02T17:43:30.497Z,60.96
2018-09-02T17:46:35.569Z,61.26
2018-09-02T17:49:40.541Z,60.81
2018-09-02T17:52:45.508Z,62.21
2018-09-02T17:55:50.546Z,62.73
2018-09-02T17:58:55.462Z,63.06
2018-09-02T18:02:00.463Z,63.19
2018-09-02T18:05:05.477Z,62.95
2018-09-02T18:08:10.487Z,62.06
2018-09-02T18:11:15.449Z,62.91
2018-09-02T18:14:20.378Z,62.27
2018-09-02T18:17:25.330Z,62.62
2018-09-02T18:20:30.282Z,63.17
2018-09-02T18:23:35.229Z,64.42
2018-09-02T18:26:40.205Z,64.89
2018-09-02T18:29:49.746Z,64.53
2018-09-02T18:32:54.875Z,64.65
2018-09-02T18:35:59.826Z,65.37
2018-09-02T18:39:07.841Z,65.87
2018-09-02T18:42:12.757Z,66.46
2018-09-02T18:45:17.803Z,66.46
2018-09-02T18:48:22.706Z,65.68
2018-09-02T18:51:27.644Z,66.22
2018-09-02T18:54:32.719Z,66.51
2018-09-02T18:57:37.658Z,66.45
2018-09-02T19:00:43.074Z,65.85
2018-09-02T19:03:48.051Z,65.42
2018-09-02T19:06:53.045Z,64.70
2018-09-02T19:09:57.974Z,65.24
2018-09-02T19:13:02.989Z,65.03
2018-09-02T19:16:08.111Z,65.10
2018-09-02T19:19:13.884Z,64.20
2018-09-02T19:22:19.245Z,63.86
2018-09-02T19:25:24.549Z,64.19
2018-09-02T19:28:29.625Z,64.95
2018-09-02T19:31:34.634Z,64.62
2018-09-02T19:34:39.558Z,64.07
2018-09-02T19:37:44.540Z,63.77
2018-09-02T19:40:49.643Z,64.53
2018-09-02T19:43:54.609Z,64.56
2018-09-02T19:46:59.661Z,63.57
2018-09-02T19:50:05.268Z,63.86
2018-09-02T19:53:10.777Z,64.29
2018-09-02T19:56:15.703Z,64.92
2018-09-02T19:59:21.135Z,65.06
2018-09-02T20:02:26.582Z,64.50
2018-09-02T20:05:31.893Z,65.42
2018-09-02T20:08:36.833Z,65.04
2018-09-02T20:11:42.124Z,65.06
2018-09-02T20:14:47.540Z,64.85
2018-09-02T20:17:52.722Z,65.24
2018-09-02T20:20:57.730Z,65.58
2018-09-02T20:24:02.988Z,65.00
2018-09-02T20:27:07.977Z,64.29
2018-09-02T20:30:12.929Z,65.76
2018-09-02T20:33:17.929Z,65.69
2018-09-02T20:36:23.067Z,64.94
2018-09-02T20:39:28.013Z,65.79
2018-09-02T20:42:33.135Z,65.74
2018-09-02T20:45:38.391Z,64.51
2018-09-02T20:48:43.404Z,65.63
2018-09-02T20:51:48.414Z,66.14
2018-09-02T20:54:53.510Z,65.94
2018-09-02T20:57:58.742Z,65.73
2018-09-02T21:01:04.561Z,65.40
2018-09-02T21:04:09.636Z,65.53
2018-09-02T21:07:14.643Z,65.79
2018-09-02T21:10:19.607Z,65.89
2018-09-02T21:13:24.572Z,65.98
2018-09-02T21:16:29.564Z,66.50
2018-09-02T21:19:34.676Z,66.89
2018-09-02T21:22:40.997Z,67.07
2018-09-02T21:25:46.266Z,66.92
2018-09-02T21:28:51.271Z,67.10
2018-09-02T21:31:56.271Z,68.11
2018-09-02T21:35:01.465Z,67.45
2018-09-02T21:38:06.893Z,68.05
2018-09-02T21:41:11.824Z,66.84
2018-09-02T21:44:16.998Z,67.75
2018-09-02T21:47:21.971Z,67.92
2018-09-02T21:50:26.959Z,68.18
2018-09-02T21:53:31.960Z,68.19
2018-09-02T21:56:36.907Z,68.60
2018-09-02T22:03:22.905Z,68.45
2018-09-02T22:06:27.838Z,69.21
2018-09-02T22:09:33.265Z,68.91
2018-09-02T22:12:38.388Z,68.87
2018-09-02T22:15:43.333Z,68.06
2018-09-02T22:18:48.342Z,68.62
2018-09-02T22:21:53.278Z,68.84
2018-09-02T22:24:58.346Z,69.50
2018-09-02T22:28:03.292Z,69.18
2018-09-02T22:31:08.328Z,68.70
2018-09-02T22:34:13.309Z,68.76
2018-09-02T22:37:18.233Z,68.99
2018-09-02T22:40:23.181Z,69.26
2018-09-02T22:43:28.474Z,68.42
2018-09-02T22:46:33.410Z,69.47
2018-09-02T22:49:38.425Z,68.85
2018-09-02T22:52:43.482Z,69.72
2018-09-02T22:55:48.500Z,69.49
2018-09-02T22:58:53.958Z,70.23
2018-09-02T23:01:59.290Z,69.99
2018-09-02T23:05:04.549Z,69.47
2018-09-02T23:08:09.547Z,69.52
2018-09-02T23:11:14.517Z,70.33
2018-09-02T23:14:19.452Z,69.30
2018-09-02T23:17:24.429Z,69.58
2018-09-02T23:20:29.380Z,70.23
2018-09-02T23:23:34.397Z,70.54
2018-09-02T23:26:39.329Z,70.07
2018-09-02T23:29:44.395Z,70.89
2018-09-02T23:32:49.308Z,71.13
2018-09-02T23:35:54.233Z,71.03
2018-09-02T23:38:59.168Z,71.05
2018-09-02T23:42:04.126Z,70.80
2018-09-02T23:45:09.200Z,71.92
2018-09-02T23:48:14.133Z,72.07
2018-09-02T23:51:19.093Z,72.24
2018-09-02T23:54:24.020Z,72.28
2018-09-02T23:57:28.951Z,71.17
